sensor_id;sensor_type;location;lat;lon;timestamp;temperature;humidity
52709;DHT22;38606;52.986;6.980;2022-07-05T00:00:58;14.70;99.90
52709;DHT22;38606;52.986;6.980;2022-07-05T00:03:24;14.70;99.90
52709;DHT22;38606;52.986;6.980;2022-07-05T00:05:50;14.70;99.90
52709;DHT22;38606;52.986;6.980;2022-07-05T00:08:16;14.70;99.90
52709;DHT22;38606;52.986;6.980;2022-07-05T00:10:42;14.70;99.90
52709;DHT22;38606;52.986;6.980;2022-07-05T00:13:07;14.80;99.90
52709;DHT22;38606;52.986;6.980;2022-07-05T00:15:33;14.50;99.90
52709;DHT22;38606;52.986;6.980;2022-07-05T00:17:59;14.80;99.90
52709;DHT22;38606;52.986;6.980;2022-07-05T00:20:25;14.70;99.90
52709;DHT22;38606;52.986;6.980;2022-07-05T00:22:52;14.70;99.90
52709;DHT22;38606;52.986;6.980;2022-07-05T00:25:18;14.70;99.90
52709;DHT22;38606;52.986;6.980;2022-07-05T00:27:44;14.50;99.90
52709;DHT22;38606;52.986;6.980;2022-07-05T00:30:10;14.60;99.90
52709;DHT22;38606;52.986;6.980;2022-07-05T00:32:36;14.60;99.90
52709;DHT22;38606;52.986;6.980;2022-07-05T00:35:03;14.40;99.90
52709;DHT22;38606;52.986;6.980;2022-07-05T00:37:29;14.40;99.90
52709;DHT22;38606;52.986;6.980;2022-07-05T00:39:55;14.30;99.90
52709;DHT22;38606;52.986;6.980;2022-07-05T00:42:21;14.30;99.90
52709;DHT22;38606;52.986;6.980;2022-07-05T00:44:47;16.00;99.90
52709;DHT22;38606;52.986;6.980;2022-07-05T00:47:13;14.30;99.90
52709;DHT22;38606;52.986;6.980;2022-07-05T00:49:40;14.20;99.90
52709;DHT22;38606;52.986;6.980;2022-07-05T00:52:06;14.40;99.90
52709;DHT22;38606;52.986;6.980;2022-07-05T00:54:35;14.30;99.90
52709;DHT22;38606;52.986;6.980;2022-07-05T00:57:02;14.20;99.90
52709;DHT22;38606;52.986;6.980;2022-07-05T00:59:29;14.10;99.90
52709;DHT22;38606;52.986;6.980;2022-07-05T01:01:55;14.40;99.90
52709;DHT22;38606;52.986;6.980;2022-07-05T01:04:21;14.40;99.90
52709;DHT22;38606;52.986;6.980;2022-07-05T01:06:49;14.50;99.90
52709;DHT22;38606;52.986;6.980;2022-07-05T01:09:16;14.30;99.90
52709;DHT22;38606;52.986;6.980;2022-07-05T01:11:43;14.20;99.90
52709;DHT22;38606;52.986;6.980;2022-07-05T01:14:11;14.10;99.90
52709;DHT22;38606;52.986;6.980;2022-07-05T01:16:38;14.00;99.90
52709;DHT22;38606;52.986;6.980;2022-07-05T01:19:06;14.00;99.90
52709;DHT22;38606;52.986;6.980;2022-07-05T01:21:34;14.00;99.90
52709;DHT22;38606;52.986;6.980;2022-07-05T01:24:03;14.20;99.90
52709;DHT22;38606;52.986;6.980;2022-07-05T01:26:30;14.10;99.90
52709;DHT22;38606;52.986;6.980;2022-07-05T01:28:56;14.60;99.90
52709;DHT22;38606;52.986;6.980;2022-07-05T01:31:22;14.10;99.90
52709;DHT22;38606;52.986;6.980;2022-07-05T01:33:48;14.10;99.90
52709;DHT22;38606;52.986;6.980;2022-07-05T01:36:13;14.10;99.90
52709;DHT22;38606;52.986;6.980;2022-07-05T01:38:40;14.00;99.90
52709;DHT22;38606;52.986;6.980;2022-07-05T01:41:07;13.80;99.90
52709;DHT22;38606;52.986;6.980;2022-07-05T01:43:34;13.90;99.90
52709;DHT22;38606;52.986;6.980;2022-07-05T01:46:01;13.80;99.90
52709;DHT22;38606;52.986;6.980;2022-07-05T01:48:29;13.60;99.90
52709;DHT22;38606;52.986;6.980;2022-07-05T01:51:05;13.70;99.90
52709;DHT22;38606;52.986;6.980;2022-07-05T01:53:33;13.80;99.90
52709;DHT22;38606;52.986;6.980;2022-07-05T01:56:02;13.80;99.90
52709;DHT22;38606;52.986;6.980;2022-07-05T01:58:30;13.60;99.90
52709;DHT22;38606;52.986;6.980;2022-07-05T02:00:57;13.70;99.90
52709;DHT22;38606;52.986;6.980;2022-07-05T02:03:23;13.70;99.90
52709;DHT22;38606;52.986;6.980;2022-07-05T02:05:50;13.90;99.90
52709;DHT22;38606;52.986;6.980;2022-07-05T02:08:17;13.70;99.90
52709;DHT22;38606;52.986;6.980;2022-07-05T02:10:43;13.50;99.90
52709;DHT22;38606;52.986;6.980;2022-07-05T02:13:10;13.60;99.90
52709;DHT22;38606;52.986;6.980;2022-07-05T02:15:38;13.80;99.90
52709;DHT22;38606;52.986;6.980;2022-07-05T02:18:05;13.80;99.90
52709;DHT22;38606;52.986;6.980;2022-07-05T02:20:31;13.70;99.90
52709;DHT22;38606;52.986;6.980;2022-07-05T02:22:58;13.50;99.90
52709;DHT22;38606;52.986;6.980;2022-07-05T02:25:24;13.50;99.90
52709;DHT22;38606;52.986;6.980;2022-07-05T02:27:54;13.60;99.90
52709;DHT22;38606;52.986;6.980;2022-07-05T02:30:20;15.30;99.90
52709;DHT22;38606;52.986;6.980;2022-07-05T02:32:46;13.20;99.90
52709;DHT22;38606;52.986;6.980;2022-07-05T02:35:12;13.50;99.90
52709;DHT22;38606;52.986;6.980;2022-07-05T02:37:38;13.20;99.90
52709;DHT22;38606;52.986;6.980;2022-07-05T02:40:06;13.40;99.90
52709;DHT22;38606;52.986;6.980;2022-07-05T02:42:33;13.50;99.90
52709;DHT22;38606;52.986;6.980;2022-07-05T02:44:59;13.40;99.90
52709;DHT22;38606;52.986;6.980;2022-07-05T02:47:24;13.30;99.90
52709;DHT22;38606;52.986;6.980;2022-07-05T02:49:50;13.40;99.90
52709;DHT22;38606;52.986;6.980;2022-07-05T02:52:17;13.40;99.90
52709;DHT22;38606;52.986;6.980;2022-07-05T02:54:43;13.50;99.90
52709;DHT22;38606;52.986;6.980;2022-07-05T02:57:08;13.40;99.90
52709;DHT22;38606;52.986;6.980;2022-07-05T02:59:34;13.30;99.90
52709;DHT22;38606;52.986;6.980;2022-07-05T03:02:00;13.40;99.90
52709;DHT22;38606;52.986;6.980;2022-07-05T03:04:25;13.40;99.90
52709;DHT22;38606;52.986;6.980;2022-07-05T03:06:51;13.50;99.90
52709;DHT22;38606;52.986;6.980;2022-07-05T03:09:17;14.30;99.90
52709;DHT22;38606;52.986;6.980;2022-07-05T03:11:42;13.50;99.90
52709;DHT22;38606;52.986;6.980;2022-07-05T03:14:08;13.40;99.90
52709;DHT22;38606;52.986;6.980;2022-07-05T03:16:34;13.40;99.90
52709;DHT22;38606;52.986;6.980;2022-07-05T03:18:59;13.40;99.90
52709;DHT22;38606;52.986;6.980;2022-07-05T03:21:25;13.50;99.90
52709;DHT22;38606;52.986;6.980;2022-07-05T03:23:51;14.60;99.90
52709;DHT22;38606;52.986;6.980;2022-07-05T03:26:16;13.10;99.90
52709;DHT22;38606;52.986;6.980;2022-07-05T03:28:42;13.20;99.90
52709;DHT22;38606;52.986;6.980;2022-07-05T03:31:08;13.40;99.90
52709;DHT22;38606;52.986;6.980;2022-07-05T03:33:34;13.20;99.90
52709;DHT22;38606;52.986;6.980;2022-07-05T03:35:59;13.40;99.90
52709;DHT22;38606;52.986;6.980;2022-07-05T03:38:25;13.20;99.90
52709;DHT22;38606;52.986;6.980;2022-07-05T03:40:51;13.20;99.90
52709;DHT22;38606;52.986;6.980;2022-07-05T03:43:16;13.30;99.90
52709;DHT22;38606;52.986;6.980;2022-07-05T03:45:42;13.30;99.90
52709;DHT22;38606;52.986;6.980;2022-07-05T03:48:08;13.10;99.90
52709;DHT22;38606;52.986;6.980;2022-07-05T03:50:33;13.40;99.90
52709;DHT22;38606;52.986;6.980;2022-07-05T03:52:59;13.00;99.90
52709;DHT22;38606;52.986;6.980;2022-07-05T03:55:25;13.20;99.90
52709;DHT22;38606;52.986;6.980;2022-07-05T03:57:50;13.30;99.90
52709;DHT22;38606;52.986;6.980;2022-07-05T04:00:17;12.90;99.90
52709;DHT22;38606;52.986;6.980;2022-07-05T04:02:42;13.50;99.90
52709;DHT22;38606;52.986;6.980;2022-07-05T04:05:08;13.20;99.90
52709;DHT22;38606;52.986;6.980;2022-07-05T04:07:34;13.20;99.90
52709;DHT22;38606;52.986;6.980;2022-07-05T04:10:00;13.20;99.90
52709;DHT22;38606;52.986;6.980;2022-07-05T04:12:25;13.20;99.90
52709;DHT22;38606;52.986;6.980;2022-07-05T04:14:51;13.30;99.90
52709;DHT22;38606;52.986;6.980;2022-07-05T04:17:17;13.40;99.90
52709;DHT22;38606;52.986;6.980;2022-07-05T04:19:43;13.60;99.90
52709;DHT22;38606;52.986;6.980;2022-07-05T04:22:09;13.50;99.90
52709;DHT22;38606;52.986;6.980;2022-07-05T04:24:35;13.50;99.90
52709;DHT22;38606;52.986;6.980;2022-07-05T04:27:21;13.50;99.90
52709;DHT22;38606;52.986;6.980;2022-07-05T04:29:47;13.50;99.90
52709;DHT22;38606;52.986;6.980;2022-07-05T04:32:13;13.50;99.90
52709;DHT22;38606;52.986;6.980;2022-07-05T04:34:38;13.60;99.90
52709;DHT22;38606;52.986;6.980;2022-07-05T04:37:04;13.90;99.90
52709;DHT22;38606;52.986;6.980;2022-07-05T04:39:30;13.80;99.90
52709;DHT22;38606;52.986;6.980;2022-07-05T04:41:55;13.80;99.90
52709;DHT22;38606;52.986;6.980;2022-07-05T04:44:21;13.80;99.90
52709;DHT22;38606;52.986;6.980;2022-07-05T04:46:47;13.90;99.90
52709;DHT22;38606;52.986;6.980;2022-07-05T04:49:12;14.10;99.90
52709;DHT22;38606;52.986;6.980;2022-07-05T04:51:38;14.10;99.90
52709;DHT22;38606;52.986;6.980;2022-07-05T04:54:04;14.20;99.90
52709;DHT22;38606;52.986;6.980;2022-07-05T04:56:29;14.50;99.90
52709;DHT22;38606;52.986;6.980;2022-07-05T04:58:55;14.40;99.90
52709;DHT22;38606;52.986;6.980;2022-07-05T05:01:21;14.40;99.90
52709;DHT22;38606;52.986;6.980;2022-07-05T05:03:46;14.80;99.90
52709;DHT22;38606;52.986;6.980;2022-07-05T05:06:12;14.70;99.90
52709;DHT22;38606;52.986;6.980;2022-07-05T05:08:40;14.90;99.90
52709;DHT22;38606;52.986;6.980;2022-07-05T05:11:07;14.90;99.90
52709;DHT22;38606;52.986;6.980;2022-07-05T05:13:33;15.20;99.90
52709;DHT22;38606;52.986;6.980;2022-07-05T05:15:59;15.20;99.90
52709;DHT22;38606;52.986;6.980;2022-07-05T05:18:24;15.10;99.90
52709;DHT22;38606;52.986;6.980;2022-07-05T05:20:53;15.50;99.90
52709;DHT22;38606;52.986;6.980;2022-07-05T05:23:20;15.50;99.90
52709;DHT22;38606;52.986;6.980;2022-07-05T05:25:46;15.60;99.90
52709;DHT22;38606;52.986;6.980;2022-07-05T05:28:12;15.50;99.90
52709;DHT22;38606;52.986;6.980;2022-07-05T05:30:37;15.70;99.90
52709;DHT22;38606;52.986;6.980;2022-07-05T05:33:03;16.10;99.90
52709;DHT22;38606;52.986;6.980;2022-07-05T05:35:29;16.10;99.90
52709;DHT22;38606;52.986;6.980;2022-07-05T05:37:56;16.10;99.90
52709;DHT22;38606;52.986;6.980;2022-07-05T05:40:23;16.30;99.90
52709;DHT22;38606;52.986;6.980;2022-07-05T05:42:49;16.30;99.90
52709;DHT22;38606;52.986;6.980;2022-07-05T05:45:15;18.00;99.90
52709;DHT22;38606;52.986;6.980;2022-07-05T05:47:51;16.80;99.90
52709;DHT22;38606;52.986;6.980;2022-07-05T05:50:27;16.50;99.90
52709;DHT22;38606;52.986;6.980;2022-07-05T05:52:53;16.70;99.90
52709;DHT22;38606;52.986;6.980;2022-07-05T05:55:19;16.90;99.90
52709;DHT22;38606;52.986;6.980;2022-07-05T05:57:45;16.90;99.90
52709;DHT22;38606;52.986;6.980;2022-07-05T06:00:12;17.20;99.90
52709;DHT22;38606;52.986;6.980;2022-07-05T06:02:38;17.20;99.90
52709;DHT22;38606;52.986;6.980;2022-07-05T06:05:04;17.20;99.90
52709;DHT22;38606;52.986;6.980;2022-07-05T06:07:30;17.40;99.90
52709;DHT22;38606;52.986;6.980;2022-07-05T06:09:56;17.70;99.90
52709;DHT22;38606;52.986;6.980;2022-07-05T06:12:21;17.70;99.90
52709;DHT22;38606;52.986;6.980;2022-07-05T06:14:47;17.60;99.90
52709;DHT22;38606;52.986;6.980;2022-07-05T06:17:13;18.00;99.90
52709;DHT22;38606;52.986;6.980;2022-07-05T06:19:38;17.80;99.90
52709;DHT22;38606;52.986;6.980;2022-07-05T06:22:04;17.80;99.90
52709;DHT22;38606;52.986;6.980;2022-07-05T06:24:30;18.20;99.90
52709;DHT22;38606;52.986;6.980;2022-07-05T06:26:55;18.30;99.90
52709;DHT22;38606;52.986;6.980;2022-07-05T06:29:21;18.60;99.90
52709;DHT22;38606;52.986;6.980;2022-07-05T06:31:47;18.50;99.90
52709;DHT22;38606;52.986;6.980;2022-07-05T06:34:12;18.50;99.90
52709;DHT22;38606;52.986;6.980;2022-07-05T06:36:38;18.80;99.90
52709;DHT22;38606;52.986;6.980;2022-07-05T06:39:03;18.80;99.90
52709;DHT22;38606;52.986;6.980;2022-07-05T06:41:29;18.90;99.90
52709;DHT22;38606;52.986;6.980;2022-07-05T06:43:55;19.20;99.90
52709;DHT22;38606;52.986;6.980;2022-07-05T06:46:20;19.30;99.90
52709;DHT22;38606;52.986;6.980;2022-07-05T06:48:46;19.30;99.90
52709;DHT22;38606;52.986;6.980;2022-07-05T06:51:12;19.30;99.90
52709;DHT22;38606;52.986;6.980;2022-07-05T06:53:37;19.30;99.90
52709;DHT22;38606;52.986;6.980;2022-07-05T06:56:03;19.30;99.90
52709;DHT22;38606;52.986;6.980;2022-07-05T06:58:29;19.50;99.90
52709;DHT22;38606;52.986;6.980;2022-07-05T07:00:55;19.50;99.90
52709;DHT22;38606;52.986;6.980;2022-07-05T07:03:21;19.90;99.90
52709;DHT22;38606;52.986;6.980;2022-07-05T07:05:46;19.80;99.90
52709;DHT22;38606;52.986;6.980;2022-07-05T07:08:12;20.00;99.90
52709;DHT22;38606;52.986;6.980;2022-07-05T07:10:56;20.00;99.90
52709;DHT22;38606;52.986;6.980;2022-07-05T07:13:22;20.30;99.90
52709;DHT22;38606;52.986;6.980;2022-07-05T07:15:48;20.20;99.90
52709;DHT22;38606;52.986;6.980;2022-07-05T07:18:14;20.40;99.90
52709;DHT22;38606;52.986;6.980;2022-07-05T07:20:40;20.50;99.90
52709;DHT22;38606;52.986;6.980;2022-07-05T07:23:05;20.50;99.90
52709;DHT22;38606;52.986;6.980;2022-07-05T07:25:31;20.30;99.90
52709;DHT22;38606;52.986;6.980;2022-07-05T07:27:57;20.30;99.90
52709;DHT22;38606;52.986;6.980;2022-07-05T07:30:25;20.70;99.90
52709;DHT22;38606;52.986;6.980;2022-07-05T07:32:51;20.70;99.90
52709;DHT22;38606;52.986;6.980;2022-07-05T07:35:17;20.70;99.90
52709;DHT22;38606;52.986;6.980;2022-07-05T07:37:43;20.90;99.90
52709;DHT22;38606;52.986;6.980;2022-07-05T07:40:09;21.10;99.90
52709;DHT22;38606;52.986;6.980;2022-07-05T07:42:35;21.00;99.90
52709;DHT22;38606;52.986;6.980;2022-07-05T07:45:02;21.30;99.90
52709;DHT22;38606;52.986;6.980;2022-07-05T07:47:33;21.40;99.90
52709;DHT22;38606;52.986;6.980;2022-07-05T07:49:59;21.20;99.90
52709;DHT22;38606;52.986;6.980;2022-07-05T07:52:26;21.70;99.90
52709;DHT22;38606;52.986;6.980;2022-07-05T07:54:52;21.60;99.90
52709;DHT22;38606;52.986;6.980;2022-07-05T07:57:17;21.90;99.90
52709;DHT22;38606;52.986;6.980;2022-07-05T07:59:44;22.20;99.90
52709;DHT22;38606;52.986;6.980;2022-07-05T08:02:10;22.20;99.90
52709;DHT22;38606;52.986;6.980;2022-07-05T08:04:36;22.20;99.90
52709;DHT22;38606;52.986;6.980;2022-07-05T08:07:02;22.10;99.90
52709;DHT22;38606;52.986;6.980;2022-07-05T08:09:29;21.70;99.90
52709;DHT22;38606;52.986;6.980;2022-07-05T08:11:55;21.80;99.90
52709;DHT22;38606;52.986;6.980;2022-07-05T08:14:21;21.60;99.90
52709;DHT22;38606;52.986;6.980;2022-07-05T08:16:48;21.30;99.90
52709;DHT22;38606;52.986;6.980;2022-07-05T08:19:15;21.50;99.90
52709;DHT22;38606;52.986;6.980;2022-07-05T08:22:16;21.30;99.90
52709;DHT22;38606;52.986;6.980;2022-07-05T08:24:41;21.40;99.90
52709;DHT22;38606;52.986;6.980;2022-07-05T08:27:08;21.40;99.90
52709;DHT22;38606;52.986;6.980;2022-07-05T08:29:34;21.30;99.90
52709;DHT22;38606;52.986;6.980;2022-07-05T08:31:59;21.30;99.90
52709;DHT22;38606;52.986;6.980;2022-07-05T08:34:25;21.50;99.90
52709;DHT22;38606;52.986;6.980;2022-07-05T08:36:51;21.60;99.90
52709;DHT22;38606;52.986;6.980;2022-07-05T08:39:17;21.50;99.90
52709;DHT22;38606;52.986;6.980;2022-07-05T08:41:48;21.70;99.90
52709;DHT22;38606;52.986;6.980;2022-07-05T08:44:21;21.70;99.90
52709;DHT22;38606;52.986;6.980;2022-07-05T08:46:48;21.70;99.90
52709;DHT22;38606;52.986;6.980;2022-07-05T08:49:14;21.50;99.90
52709;DHT22;38606;52.986;6.980;2022-07-05T08:51:41;21.60;99.90
52709;DHT22;38606;52.986;6.980;2022-07-05T08:54:09;21.70;99.90
52709;DHT22;38606;52.986;6.980;2022-07-05T08:56:36;21.70;99.90
52709;DHT22;38606;52.986;6.980;2022-07-05T08:59:03;21.80;99.90
52709;DHT22;38606;52.986;6.980;2022-07-05T09:01:29;21.70;99.90
52709;DHT22;38606;52.986;6.980;2022-07-05T09:04:00;21.70;99.90
52709;DHT22;38606;52.986;6.980;2022-07-05T09:06:27;21.60;99.90
52709;DHT22;38606;52.986;6.980;2022-07-05T09:08:55;21.50;99.90
52709;DHT22;38606;52.986;6.980;2022-07-05T09:11:29;21.80;99.90
52709;DHT22;38606;52.986;6.980;2022-07-05T09:13:56;21.90;99.80
52709;DHT22;38606;52.986;6.980;2022-07-05T09:16:23;21.80;99.40
52709;DHT22;38606;52.986;6.980;2022-07-05T09:18:53;21.90;99.90
52709;DHT22;38606;52.986;6.980;2022-07-05T09:21:24;21.80;99.80
52709;DHT22;38606;52.986;6.980;2022-07-05T09:24:01;21.80;99.50
52709;DHT22;38606;52.986;6.980;2022-07-05T09:29:06;21.70;98.90
52709;DHT22;38606;52.986;6.980;2022-07-05T09:31:37;21.70;99.10
52709;DHT22;38606;52.986;6.980;2022-07-05T09:34:09;21.50;99.30
52709;DHT22;38606;52.986;6.980;2022-07-05T09:42:11;21.80;98.40
52709;DHT22;38606;52.986;6.980;2022-07-05T09:44:38;21.70;98.10
52709;DHT22;38606;52.986;6.980;2022-07-05T09:47:08;21.60;97.80
52709;DHT22;38606;52.986;6.980;2022-07-05T09:49:37;21.60;97.50
52709;DHT22;38606;52.986;6.980;2022-07-05T09:52:03;21.50;97.60
52709;DHT22;38606;52.986;6.980;2022-07-05T09:54:28;21.50;97.90
52709;DHT22;38606;52.986;6.980;2022-07-05T09:56:54;21.50;98.60
52709;DHT22;38606;52.986;6.980;2022-07-05T09:59:20;21.60;98.90
52709;DHT22;38606;52.986;6.980;2022-07-05T10:01:47;21.80;98.60
52709;DHT22;38606;52.986;6.980;2022-07-05T10:04:13;21.80;97.80
52709;DHT22;38606;52.986;6.980;2022-07-05T10:06:39;21.90;97.30
52709;DHT22;38606;52.986;6.980;2022-07-05T10:09:05;21.80;97.10
52709;DHT22;38606;52.986;6.980;2022-07-05T10:11:31;21.60;97.30
52709;DHT22;38606;52.986;6.980;2022-07-05T10:13:58;21.80;97.30
52709;DHT22;38606;52.986;6.980;2022-07-05T10:16:25;21.90;97.00
52709;DHT22;38606;52.986;6.980;2022-07-05T10:18:51;21.80;96.70
52709;DHT22;38606;52.986;6.980;2022-07-05T10:21:18;22.10;96.20
52709;DHT22;38606;52.986;6.980;2022-07-05T10:23:49;21.80;96.00
52709;DHT22;38606;52.986;6.980;2022-07-05T10:26:21;22.10;96.10
52709;DHT22;38606;52.986;6.980;2022-07-05T10:28:50;21.40;96.10
52709;DHT22;38606;52.986;6.980;2022-07-05T10:31:17;21.60;97.00
52709;DHT22;38606;52.986;6.980;2022-07-05T10:33:43;21.70;97.70
52709;DHT22;38606;52.986;6.980;2022-07-05T10:36:10;21.30;97.60
52709;DHT22;38606;52.986;6.980;2022-07-05T10:38:38;21.60;97.70
52709;DHT22;38606;52.986;6.980;2022-07-05T10:41:06;21.80;97.60
52709;DHT22;38606;52.986;6.980;2022-07-05T10:43:33;21.80;97.70
52709;DHT22;38606;52.986;6.980;2022-07-05T10:45:59;21.80;97.10
52709;DHT22;38606;52.986;6.980;2022-07-05T10:48:27;21.80;97.30
52709;DHT22;38606;52.986;6.980;2022-07-05T10:50:54;21.80;97.20
52709;DHT22;38606;52.986;6.980;2022-07-05T10:56:13;22.00;96.30
52709;DHT22;38606;52.986;6.980;2022-07-05T10:58:47;21.90;97.20
52709;DHT22;38606;52.986;6.980;2022-07-05T11:11:37;22.30;96.10
52709;DHT22;38606;52.986;6.980;2022-07-05T11:22:24;22.60;94.20
52709;DHT22;38606;52.986;6.980;2022-07-05T11:24:51;22.80;94.70
52709;DHT22;38606;52.986;6.980;2022-07-05T11:27:17;22.60;94.70
52709;DHT22;38606;52.986;6.980;2022-07-05T11:29:47;22.50;94.80
52709;DHT22;38606;52.986;6.980;2022-07-05T11:32:22;22.40;94.20
52709;DHT22;38606;52.986;6.980;2022-07-05T11:34:50;22.30;94.40
52709;DHT22;38606;52.986;6.980;2022-07-05T11:42:48;22.10;96.10
52709;DHT22;38606;52.986;6.980;2022-07-05T11:45:14;22.00;95.00
52709;DHT22;38606;52.986;6.980;2022-07-05T11:47:40;21.80;95.70
52709;DHT22;38606;52.986;6.980;2022-07-05T11:50:07;21.70;95.90
52709;DHT22;38606;52.986;6.980;2022-07-05T11:52:34;21.70;96.00
52709;DHT22;38606;52.986;6.980;2022-07-05T11:55:10;21.50;96.30
52709;DHT22;38606;52.986;6.980;2022-07-05T11:57:37;21.70;96.80
52709;DHT22;38606;52.986;6.980;2022-07-05T12:00:06;21.60;96.80
52709;DHT22;38606;52.986;6.980;2022-07-05T12:02:32;21.50;96.70
52709;DHT22;38606;52.986;6.980;2022-07-05T12:05:08;21.60;97.00
52709;DHT22;38606;52.986;6.980;2022-07-05T12:07:34;21.60;97.50
52709;DHT22;38606;52.986;6.980;2022-07-05T12:10:01;21.50;97.40
52709;DHT22;38606;52.986;6.980;2022-07-05T12:12:46;22.10;97.70
52709;DHT22;38606;52.986;6.980;2022-07-05T12:15:13;21.90;96.50
52709;DHT22;38606;52.986;6.980;2022-07-05T12:17:42;22.10;95.90
52709;DHT22;38606;52.986;6.980;2022-07-05T12:20:10;22.50;95.60
52709;DHT22;38606;52.986;6.980;2022-07-05T12:22:41;22.80;95.20
52709;DHT22;38606;52.986;6.980;2022-07-05T12:25:10;22.90;95.00
52709;DHT22;38606;52.986;6.980;2022-07-05T12:27:38;22.90;94.60
52709;DHT22;38606;52.986;6.980;2022-07-05T12:30:05;22.80;93.70
52709;DHT22;38606;52.986;6.980;2022-07-05T12:32:31;22.90;93.40
52709;DHT22;38606;52.986;6.980;2022-07-05T12:34:58;22.70;93.40
52709;DHT22;38606;52.986;6.980;2022-07-05T12:37:25;22.80;93.80
52709;DHT22;38606;52.986;6.980;2022-07-05T12:40:07;22.40;93.90
52709;DHT22;38606;52.986;6.980;2022-07-05T12:42:38;22.60;93.60
52709;DHT22;38606;52.986;6.980;2022-07-05T12:45:11;22.70;94.00
52709;DHT22;38606;52.986;6.980;2022-07-05T12:47:56;22.70;92.80
52709;DHT22;38606;52.986;6.980;2022-07-05T12:50:23;22.30;92.20
52709;DHT22;38606;52.986;6.980;2022-07-05T12:53:06;22.80;92.70
52709;DHT22;38606;52.986;6.980;2022-07-05T12:58:51;23.00;93.10
52709;DHT22;38606;52.986;6.980;2022-07-05T13:01:37;23.00;92.60
52709;DHT22;38606;52.986;6.980;2022-07-05T13:04:12;23.50;91.40
52709;DHT22;38606;52.986;6.980;2022-07-05T13:06:52;23.50;90.40
52709;DHT22;38606;52.986;6.980;2022-07-05T13:09:37;23.20;88.60
52709;DHT22;38606;52.986;6.980;2022-07-05T13:12:20;23.20;91.00
52709;DHT22;38606;52.986;6.980;2022-07-05T13:14:51;23.60;92.10
52709;DHT22;38606;52.986;6.980;2022-07-05T13:17:22;23.50;92.90
52709;DHT22;38606;52.986;6.980;2022-07-05T13:19:49;23.50;93.50
52709;DHT22;38606;52.986;6.980;2022-07-05T13:22:15;23.30;93.10
52709;DHT22;38606;52.986;6.980;2022-07-05T13:24:42;23.10;93.00
52709;DHT22;38606;52.986;6.980;2022-07-05T13:27:09;23.00;93.20
52709;DHT22;38606;52.986;6.980;2022-07-05T13:29:35;22.50;93.30
52709;DHT22;38606;52.986;6.980;2022-07-05T13:32:01;22.50;93.60
52709;DHT22;38606;52.986;6.980;2022-07-05T13:34:27;22.60;93.60
52709;DHT22;38606;52.986;6.980;2022-07-05T13:36:55;22.30;94.40
52709;DHT22;38606;52.986;6.980;2022-07-05T13:39:21;22.60;94.70
52709;DHT22;38606;52.986;6.980;2022-07-05T13:41:49;22.50;94.90
52709;DHT22;38606;52.986;6.980;2022-07-05T13:44:15;22.30;94.10
52709;DHT22;38606;52.986;6.980;2022-07-05T13:46:40;22.30;94.20
52709;DHT22;38606;52.986;6.980;2022-07-05T13:49:06;22.50;94.50
52709;DHT22;38606;52.986;6.980;2022-07-05T13:51:32;21.30;94.20
52709;DHT22;38606;52.986;6.980;2022-07-05T13:53:57;22.80;94.70
52709;DHT22;38606;52.986;6.980;2022-07-05T13:56:23;22.70;94.10
52709;DHT22;38606;52.986;6.980;2022-07-05T13:58:49;22.90;94.20
52709;DHT22;38606;52.986;6.980;2022-07-05T14:01:15;22.90;94.40
52709;DHT22;38606;52.986;6.980;2022-07-05T14:03:42;22.90;94.60
52709;DHT22;38606;52.986;6.980;2022-07-05T14:06:08;22.80;94.30
52709;DHT22;38606;52.986;6.980;2022-07-05T14:08:33;22.60;93.60
52709;DHT22;38606;52.986;6.980;2022-07-05T14:10:59;22.70;93.10
52709;DHT22;38606;52.986;6.980;2022-07-05T14:13:25;22.50;92.60
52709;DHT22;38606;52.986;6.980;2022-07-05T14:15:52;22.40;93.20
52709;DHT22;38606;52.986;6.980;2022-07-05T14:18:19;22.10;92.60
52709;DHT22;38606;52.986;6.980;2022-07-05T14:20:46;22.20;93.30
52709;DHT22;38606;52.986;6.980;2022-07-05T14:23:12;22.30;93.40
52709;DHT22;38606;52.986;6.980;2022-07-05T14:25:40;22.40;93.30
52709;DHT22;38606;52.986;6.980;2022-07-05T14:28:06;22.40;93.60
52709;DHT22;38606;52.986;6.980;2022-07-05T14:30:42;22.20;93.00
52709;DHT22;38606;52.986;6.980;2022-07-05T14:33:09;22.20;93.00
52709;DHT22;38606;52.986;6.980;2022-07-05T14:35:35;22.50;93.30
52709;DHT22;38606;52.986;6.980;2022-07-05T14:38:01;22.20;92.70
52709;DHT22;38606;52.986;6.980;2022-07-05T14:40:27;22.50;93.30
52709;DHT22;38606;52.986;6.980;2022-07-05T14:42:56;22.20;92.50
52709;DHT22;38606;52.986;6.980;2022-07-05T14:45:23;22.40;93.10
52709;DHT22;38606;52.986;6.980;2022-07-05T14:47:49;22.20;92.80
52709;DHT22;38606;52.986;6.980;2022-07-05T14:50:15;22.40;93.20
52709;DHT22;38606;52.986;6.980;2022-07-05T14:52:41;22.40;92.70
52709;DHT22;38606;52.986;6.980;2022-07-05T14:55:08;22.40;92.20
52709;DHT22;38606;52.986;6.980;2022-07-05T14:57:35;22.60;92.00
52709;DHT22;38606;52.986;6.980;2022-07-05T15:00:02;22.40;92.30
52709;DHT22;38606;52.986;6.980;2022-07-05T15:02:28;22.40;92.50
52709;DHT22;38606;52.986;6.980;2022-07-05T15:04:54;22.50;93.00
52709;DHT22;38606;52.986;6.980;2022-07-05T15:07:20;22.30;92.60
52709;DHT22;38606;52.986;6.980;2022-07-05T15:09:46;24.40;92.20
52709;DHT22;38606;52.986;6.980;2022-07-05T15:12:13;22.30;92.20
52709;DHT22;38606;52.986;6.980;2022-07-05T15:14:38;22.20;92.10
52709;DHT22;38606;52.986;6.980;2022-07-05T15:17:04;22.20;92.10
52709;DHT22;38606;52.986;6.980;2022-07-05T15:19:30;21.80;92.30
52709;DHT22;38606;52.986;6.980;2022-07-05T15:21:56;22.00;94.10
52709;DHT22;38606;52.986;6.980;2022-07-05T15:24:22;21.60;93.40
52709;DHT22;38606;52.986;6.980;2022-07-05T15:26:48;21.80;93.50
52709;DHT22;38606;52.986;6.980;2022-07-05T15:29:13;22.00;93.80
52709;DHT22;38606;52.986;6.980;2022-07-05T15:31:39;22.10;93.10
52709;DHT22;38606;52.986;6.980;2022-07-05T15:34:06;22.30;92.80
52709;DHT22;38606;52.986;6.980;2022-07-05T15:36:32;22.10;92.60
52709;DHT22;38606;52.986;6.980;2022-07-05T15:39:03;22.20;92.90
52709;DHT22;38606;52.986;6.980;2022-07-05T15:41:30;22.20;92.30
52709;DHT22;38606;52.986;6.980;2022-07-05T15:43:57;22.10;92.30
52709;DHT22;38606;52.986;6.980;2022-07-05T15:46:23;22.10;92.40
52709;DHT22;38606;52.986;6.980;2022-07-05T15:48:49;22.40;92.20
52709;DHT22;38606;52.986;6.980;2022-07-05T15:51:18;22.00;92.50
52709;DHT22;38606;52.986;6.980;2022-07-05T15:53:47;22.30;92.80
52709;DHT22;38606;52.986;6.980;2022-07-05T15:56:13;22.10;92.80
52709;DHT22;38606;52.986;6.980;2022-07-05T15:58:39;22.20;92.70
52709;DHT22;38606;52.986;6.980;2022-07-05T16:01:05;22.00;92.50
52709;DHT22;38606;52.986;6.980;2022-07-05T16:03:31;22.00;92.20
52709;DHT22;38606;52.986;6.980;2022-07-05T16:06:03;21.90;92.40
52709;DHT22;38606;52.986;6.980;2022-07-05T16:08:29;21.90;92.60